This is the latest recevied weather packets stored in our database for station/object IW2DGQ-3. If no packets are shown the sender has not sent any weather packets the latest 10 day(s).
| Time | Temp. | Humidity | Pressure | Rain* | Wind** | Luminosity | Snow |
|---|---|---|---|---|---|---|---|
| 1777465200 | 25° C | 35% | 1017.1 hPa | - | - | - | - |
| 1777463995 | 26.11° C | 36% | 1017 hPa | - | - | - | - |
| 1777457975 | 26.11° C | 38% | 1017.6 hPa | - | - | - | - |
| 1777453158 | 27.78° C | 34% | 1017.6 hPa | - | - | - | - |
| 1777451954 | 26.67° C | 37% | 1017.7 hPa | - | - | - | - |
| 1777450750 | 32.22° C | 31% | 1017.6 hPa | - | - | - | - |
| 1777450007 | 31.67° C | 32% | 1017.6 hPa | - | - | - | - |
| 1777448803 | 30.56° C | 33% | 1017.5 hPa | - | - | - | - |
| 1777447600 | 31.67° C | 34% | 1017.5 hPa | - | - | - | - |
| 1777446397 | 31.11° C | 35% | 1017.5 hPa | - | - | - | - |
| 1777443990 | 31.11° C | 39% | 1017.4 hPa | - | - | - | - |
| 1777442786 | 29.44° C | 44% | 1017.1 hPa | - | - | - | - |
| 1777441583 | 21.11° C | 52% | 1017.2 hPa | - | - | - | - |
| 1777440379 | 21.11° C | 55% | 1017.1 hPa | - | - | - | - |
| 1777439176 | 18.33° C | 62% | 1016.9 hPa | - | - | - | - |
| 1777437972 | 14.44° C | 65% | 1016.9 hPa | - | - | - | - |
| 1777436769 | 12.78° C | 67% | 1016.9 hPa | - | - | - | - |
| 1777435565 | 12.78° C | 66% | 1016.9 hPa | - | - | - | - |
| 1777434362 | 12.78° C | 66% | 1016.8 hPa | - | - | - | - |
| 1777433158 | 13.33° C | 66% | 1016.7 hPa | - | - | - | - |
| 1777431955 | 13.33° C | 66% | 1016.7 hPa | - | - | - | - |
| 1777430751 | 13.33° C | 66% | 1016.7 hPa | - | - | - | - |
| 1777429548 | 13.33° C | 65% | 1016.7 hPa | - | - | - | - |
| 1777428344 | 13.33° C | 65% | 1016.7 hPa | - | - | - | - |
| 1777427141 | 13.33° C | 64% | 1016.7 hPa | - | - | - | - |
* Rain since midnight (hover to see other rain measurements)
** Current wind speed in m/s (hover to see current wind gust speed)